Time;durP1;ratioP1;P1;durP2;ratioP2;P2;SDS_P1;SDS_P2;PMS_P1;PMS_P2;Temp;Humidity;BMP_temperature;BMP_pressure;BME280_temperature;BME280_humidity;BME280_pressure;Samples;Min_cycle;Max_cycle;Signal;HPM_P1;HPM_P2
2021/11/15 00:01:16;;;;;;;60.15;36.65;;;;;;;5.91;70.18;94955.65;833591;71;30968;-79
2021/11/15 00:16:12;;;;;;;58.90;34.67;;;;;;;5.60;70.99;94938.43;833569;71;30311;-81
2021/11/15 00:31:35;;;;;;;59.33;37.15;;;;;;;5.67;71.26;94959.58;828649;71;33678;-82
2021/11/15 00:46:12;;;;;;;53.87;33.23;;;;;;;5.61;71.38;94966.02;827671;71;31432;-81
2021/11/15 01:01:37;;;;;;;57.67;34.25;;;;;;;5.47;71.25;94930.21;834661;71;32729;-80
2021/11/15 01:31:29;;;;;;;66.50;38.33;;;;;;;5.59;72.78;94929.55;835813;69;32662;-81
2021/11/15 02:01:26;;;;;;;;;;;;;;;;;;;;;
2021/11/15 02:16:19;;;;;;;75.08;39.67;;;;;;;5.74;75.81;94929.72;827654;71;30653;-80
2021/11/15 02:31:16;;;;;;;83.60;39.00;;;;;;;5.91;76.06;94934.81;833376;71;32645;-82
2021/11/15 02:46:27;;;;;;;;;;;;;;;;;;;;;
2021/11/15 03:16:44;;;;;;;66.05;36.60;;;;;;;5.62;74.50;94962.92;862871;68;32661;-79
2021/11/15 03:31:23;;;;;;;59.25;33.50;;;;;;;5.34;73.27;94917.07;833565;71;32790;-80
2021/11/15 03:46:34;;;;;;;53.25;32.70;;;;;;;5.54;73.10;94951.12;826026;71;32901;-80
2021/11/15 04:02:10;;;;;;;;;;;;;;;;;;;;;
2021/11/15 04:31:22;;;;;;;53.65;30.45;;;;;;;5.21;72.87;94959.83;820549;71;32839;-82
2021/11/15 05:01:37;;;;;;;53.80;34.03;;;;;;;4.95;74.27;94973.05;827646;71;32729;-81
2021/11/15 05:16:08;;;;;;;54.30;30.72;;;;;;;4.80;73.56;94981.41;828004;71;29789;-75
2021/11/15 05:31:12;;;;;;;57.17;31.23;;;;;;;4.62;73.83;94990.24;827310;71;32033;-79
2021/11/15 05:46:08;;;;;;;52.45;28.80;;;;;;;4.62;74.25;95011.03;827728;71;29302;-76
2021/11/15 06:01:09;;;;;;;54.25;29.15;;;;;;;5.28;74.28;95022.11;828147;71;30373;-78
2021/11/15 06:16:15;;;;;;;52.90;31.80;;;;;;;6.74;71.39;95034.03;826617;71;32752;-77
2021/11/15 06:31:11;;;;;;;51.42;31.30;;;;;;;8.02;68.05;95037.28;819513;71;30138;-76
2021/11/15 06:46:15;;;;;;;43.25;27.17;;;;;;;9.08;63.98;95033.70;826928;71;32821;-76
2021/11/15 07:01:13;;;;;;;29.52;21.15;;;;;;;7.92;67.43;95041.17;828808;71;31334;-81
2021/11/15 07:16:18;;;;;;;30.85;22.90;;;;;;;8.00;69.00;95041.45;834103;71;31882;-80
2021/11/15 07:46:09;;;;;;;37.80;24.52;;;;;;;8.81;70.44;95034.01;828528;71;29159;-80
2021/11/15 08:01:11;;;;;;;38.45;26.73;;;;;;;9.10;70.73;95030.30;828736;71;29121;-80
2021/11/15 08:16:14;;;;;;;41.20;26.50;;;;;;;9.90;67.33;95024.30;834091;71;31753;-79
2021/11/15 08:31:11;;;;;;;42.23;26.70;;;;;;;10.16;66.07;95021.02;831534;71;28739;-80
2021/11/15 09:16:11;;;;;;;38.17;25.17;;;;;;;10.88;64.10;95031.02;826856;71;28703;-80
2021/11/15 09:31:13;;;;;;;35.03;24.02;;;;;;;10.86;64.60;95034.45;826704;71;31175;-82
2021/11/15 09:46:19;;;;;;;24.23;17.87;;;;;;;11.39;61.19;95041.58;824362;71;29213;-80
2021/11/15 10:01:09;;;;;;;18.15;15.20;;;;;;;12.63;55.12;95028.45;829101;71;28673;-82
2021/11/15 10:16:19;;;;;;;19.87;16.05;;;;;;;13.08;52.84;95042.49;829665;71;31771;-80
2021/11/15 10:31:37;;;;;;;21.87;16.35;;;;;;;13.42;52.27;95026.38;835436;71;31798;-82
2021/11/15 10:46:40;;;;;;;20.35;14.83;;;;;;;13.27;51.02;95001.06;793173;72;31881;-83
2021/11/15 11:01:23;;;;;;;17.25;14.63;;;;;;;13.03;51.59;95023.61;828770;71;31785;-82
2021/11/15 11:16:21;;;;;;;19.70;14.33;;;;;;;13.15;50.79;95021.30;824426;71;32727;-83
2021/11/15 11:31:15;;;;;;;20.57;15.23;;;;;;;12.64;51.37;95027.40;823493;71;30444;-83
2021/11/15 11:46:09;;;;;;;19.40;15.15;;;;;;;11.63;54.06;94998.99;834617;71;30365;-80
2021/11/15 12:01:39;;;;;;;23.22;16.05;;;;;;;11.87;54.40;95016.59;815642;70;30160;31
2021/11/15 12:16:27;;;;;;;23.52;16.17;;;;;;;11.79;54.77;95026.42;824918;71;32840;-83
2021/11/15 12:31:21;;;;;;;30.17;19.57;;;;;;;12.22;56.16;95021.94;835362;71;32710;-83
2021/11/15 12:46:17;;;;;;;24.40;17.70;;;;;;;11.80;55.73;95018.77;830220;71;30275;-81
2021/11/15 13:01:18;;;;;;;22.75;16.42;;;;;;;11.30;58.68;95094.49;820092;71;33292;-80
2021/11/15 13:16:22;;;;;;;21.05;15.40;;;;;;;10.78;59.29;95067.86;830373;71;32680;-80
2021/11/15 13:31:14;;;;;;;19.27;15.18;;;;;;;10.77;59.48;95092.55;835831;69;32646;-84
2021/11/15 13:46:10;;;;;;;19.10;14.93;;;;;;;10.63;59.21;95090.53;829151;71;30332;-82
2021/11/15 14:01:33;;;;;;;19.70;16.48;;;;;;;10.57;59.23;95092.16;795376;74;32843;-86
2021/11/15 14:16:08;;;;;;;19.77;15.45;;;;;;;10.33;60.17;95105.14;817752;70;30990;-84
2021/11/15 14:31:28;;;;;;;21.10;15.55;;;;;;;10.10;60.88;95091.59;784678;74;33092;-83
2021/11/15 14:46:33;;;;;;;20.25;15.45;;;;;;;9.90;59.67;95094.30;782700;74;33314;-85
2021/11/15 15:17:08;;;;;;;;;;;;;;;;;;;;;
2021/11/15 15:31:12;;;;;;;23.60;17.00;;;;;;;9.30;62.70;95132.14;828940;71;29401;-79
2021/11/15 16:01:38;;;;;;;23.15;17.73;;;;;;;9.06;63.93;95170.61;808678;72;30831;-79
2021/11/15 16:31:09;;;;;;;21.50;17.17;;;;;;;8.87;64.97;95204.36;828224;71;30271;-79
2021/11/15 16:46:34;;;;;;;28.05;17.85;;;;;;;8.78;65.79;95194.92;834677;71;33233;-80
2021/11/15 17:01:10;;;;;;;27.32;18.57;;;;;;;8.26;68.92;95208.84;827689;71;29981;-76
2021/11/15 17:16:18;;;;;;;28.92;18.37;;;;;;;7.89;71.33;95214.92;833627;71;32796;-80
2021/11/15 17:31:10;;;;;;;24.85;17.70;;;;;;;7.76;71.89;95227.10;833516;71;29969;-78
2021/11/15 17:46:13;;;;;;;25.72;17.90;;;;;;;7.68;72.14;95227.05;827549;71;32972;-78
2021/11/15 18:01:21;;;;;;;26.85;17.70;;;;;;;7.60;72.32;95246.60;826733;71;32763;-76
2021/11/15 18:16:20;;;;;;;26.93;17.42;;;;;;;7.54;72.58;95246.78;827030;71;33218;-78
2021/11/15 18:31:21;;;;;;;24.55;16.55;;;;;;;7.56;72.23;95248.14;833241;71;32727;-77
2021/11/15 18:46:28;;;;;;;22.35;15.83;;;;;;;7.45;71.64;95252.99;828954;71;32897;-78
2021/11/15 19:01:15;;;;;;;20.68;14.07;;;;;;;7.32;71.86;95258.61;828011;71;32681;-79
2021/11/15 19:16:10;;;;;;;22.55;14.28;;;;;;;7.22;72.24;95285.42;827706;71;29484;-78
2021/11/15 19:31:12;;;;;;;22.85;14.50;;;;;;;7.19;72.31;95299.73;828045;71;29723;-79
2021/11/15 19:46:09;;;;;;;19.50;13.50;;;;;;;7.22;72.43;95308.91;834366;71;29701;-78
2021/11/15 20:01:10;;;;;;;20.25;12.93;;;;;;;7.22;72.43;95324.58;828865;71;30003;-79
2021/11/15 20:16:15;;;;;;;18.60;13.05;;;;;;;7.27;72.39;95332.97;826683;71;33371;-79
2021/11/15 20:31:11;;;;;;;19.37;13.03;;;;;;;7.23;72.42;95338.66;833551;71;30281;-79
2021/11/15 20:46:14;;;;;;;17.27;12.55;;;;;;;7.21;72.57;95336.81;827726;71;33362;-79
2021/11/15 21:16:15;;;;;;;15.95;11.25;;;;;;;7.09;73.29;95329.64;827126;71;34094;-77
2021/11/15 21:31:18;;;;;;;17.02;11.03;;;;;;;7.02;73.60;95331.66;826944;71;32749;-80
2021/11/15 21:46:08;;;;;;;13.90;10.05;;;;;;;6.97;73.77;95331.59;828023;71;29498;-79
2021/11/15 22:01:12;;;;;;;15.18;11.53;;;;;;;6.96;73.79;95346.98;834825;71;31912;-81
2021/11/15 22:16:09;;;;;;;15.30;11.00;;;;;;;6.93;73.84;95333.89;834396;71;29369;-79
2021/11/15 22:31:14;;;;;;;13.60;9.53;;;;;;;7.01;73.64;95343.11;827820;71;32587;-79
2021/11/15 22:46:18;;;;;;;11.75;8.73;;;;;;;7.00;73.41;95355.38;833016;71;33579;-81
2021/11/15 23:01:16;;;;;;;15.08;10.18;;;;;;;6.92;73.57;95351.11;824712;71;31749;-78
2021/11/15 23:16:13;;;;;;;13.80;9.98;;;;;;;6.85;74.01;95355.70;827929;71;31968;-78
